Seabrook, NH

2:59 AM EDT on September 27, 2016 (GMT -0400)
| | Change Station

Elev -9999 ft 0.00 °N, 0.00 °E | Updated

Cloudy
Cloudy
59 °F
Feels Like 59 °F
N
6
Wind Variable Wind from South
Gusts 10 mph

Today
High -- | Low -- °F
--% Chance of Precip.
Yesterday
High -- | Low -- °F
Precip. -- in
Pressure 29.96 in
Visibility 10.0 miles
Clouds Overcast 4700 ft
Dew Point 52 °F
Humidity 78%
Rainfall --
Snow Depth Not available.
6:36 AM 6:30 PM
Waning Crescent, 13% visible
METAR KPSM 270558Z 19005KT 10SM OVC047 15/09 A2995 RMK AO2A SLP145 T01470088 10147 20125 57021
Pressure 29.96 in
Visibility 10.0 miles
Clouds Overcast 4700 ft
Dew Point 52 °F
Humidity 78%
Rainfall --
Snow Depth Not available.
6:36 AM 6:30 PM
Waning Crescent, 13% visible
METAR KPSM 270558Z 19005KT 10SM OVC047 15/09 A2995 RMK AO2A SLP145 T01470088 10147 20125 57021

10-Day Weather Forecast

Almanac

Astronomy

Sep. 27, 2016 Rise Set
Actual Time
Civil Twilight
Nautical Twilight
Astronomical Twilight
Moon
Length of Visible Light
Length of Day
Tomorrow will be .
, % of the Moon is Illuminated

Today's Extremes

State Highs State Lows

Community

WunderPhotos

Upload Photos

1,942,040 photos uploaded!

WunderBlog® & News

Nearby

Air Quality

  Air Quality AQ Index Pollutant
Not available.

Snow Depth

Station Depth Elevation

Earthquake Activity

City Distance Mag. Time & Date
Minimum magnitude displayed is 2.5.

Coastal Water Temperatures

Place Temperature

Stations

Nearby Weather Stations

Station Location Temp. Windchill Dew Point Humidity Wind Precip. Elev Updated Type
                   

Watches & Warnings

There are currently no watches in effect.